KMIB

Minot AFB Airport

Minot, North Dakota, USA
METAR KMIB 200656Z 29003KT 6SM -SN OVC024 M15/M18 A3014 RMK AO2A CIG 020 RWY12 PRESRR SLP255 P0000 T11551181 $
Observed Flight Rules
Feb-20 @ 06:56 UTC (31 minutes ago) Marginal Visual Flight Rules
Wind Visibility Clouds Conditions
290° at 3 knots 6 miles
  • Overcast at 2,400' AGL
  • Light Snow
Temperatures Readings Precipitation
Current -16°C / 3°F
Dewpoint -18°C / -0°F
Humidity 85%
Altimeter 30.14" Hg
Pressure 1025.5 hPa
Elevation 508
Current Rain 0.005
METAR KMIB 200656Z 29003KT 6SM -SN OVC024 M15/M18 A3014 RMK AO2A CIG 020 RWY12 PRESRR SLP255 P0000 T11551181 $
Observed Flight Rules
Feb-20 @ 06:56 UTC
(31 minutes ago)
MVFR
Wind Visibility
290° at 3 knots 6 miles
Clouds
  • Overcast at 2,400' AGL
Conditions
  • Light Snow
Temperature Dewpoint
-16°C / 3°F -18°C / -0°F
Humidity Altimeter Pressure
85% 30.14" Hg 1025.5 hPa
Current Rain
0.005